createdAt,value
2023-01-18T00:01:06.891Z,9.35
2023-01-18T00:03:35.654Z,9.05
2023-01-18T00:06:03.943Z,7.95
2023-01-18T00:08:32.533Z,8.18
2023-01-18T00:11:04.001Z,11.45
2023-01-18T00:13:30.893Z,7.05
2023-01-18T00:16:13.825Z,7.25
2023-01-18T00:18:40.566Z,9.98
2023-01-18T00:21:09.239Z,6.80
2023-01-18T00:23:36.968Z,8.45
2023-01-18T00:26:06.571Z,8.52
2023-01-18T00:28:33.769Z,10.27
2023-01-18T00:31:00.471Z,5.97
2023-01-18T00:33:27.310Z,6.20
2023-01-18T00:35:58.644Z,7.25
2023-01-18T00:38:25.917Z,7.05
2023-01-18T00:40:53.018Z,10.43
2023-01-18T00:43:38.310Z,9.10
2023-01-18T00:46:23.430Z,11.02
2023-01-18T00:48:51.971Z,8.55
2023-01-18T00:51:21.852Z,8.13
2023-01-18T00:53:48.776Z,10.48
2023-01-18T00:56:18.876Z,9.63
2023-01-18T00:58:46.457Z,7.60
2023-01-18T01:01:14.319Z,11.30
2023-01-18T01:03:59.651Z,6.60
2023-01-18T01:06:44.507Z,3.80
2023-01-18T01:09:16.157Z,9.07
2023-01-18T01:12:05.753Z,7.88
2023-01-18T01:14:53.524Z,9.32
2023-01-18T01:17:38.976Z,4.20
2023-01-18T01:20:25.185Z,7.55
2023-01-18T01:23:10.410Z,6.53
2023-01-18T01:25:56.689Z,7.82
2023-01-18T01:28:23.970Z,9.70
2023-01-18T01:30:50.728Z,8.13
2023-01-18T01:33:18.496Z,5.45
2023-01-18T01:35:45.179Z,7.97
2023-01-18T01:38:11.865Z,9.07
2023-01-18T01:40:38.862Z,8.23
2023-01-18T01:43:11.891Z,6.82
2023-01-18T01:45:40.008Z,8.70
2023-01-18T01:48:10.423Z,7.70
2023-01-18T01:50:40.441Z,8.73
2023-01-18T01:53:09.326Z,6.63
2023-01-18T01:55:38.106Z,7.35
2023-01-18T01:58:13.259Z,7.68
2023-01-18T02:00:39.955Z,6.93
2023-01-18T02:03:10.654Z,11.65
2023-01-18T02:05:45.439Z,6.85
2023-01-18T02:08:14.121Z,6.03
2023-01-18T02:10:40.864Z,5.85
2023-01-18T02:13:10.577Z,7.22
2023-01-18T02:15:50.319Z,8.35
2023-01-18T02:18:24.790Z,7.72
2023-01-18T02:21:15.371Z,8.20
2023-01-18T02:23:54.248Z,5.65
2023-01-18T02:26:44.437Z,9.77
2023-01-18T02:29:17.862Z,6.30
2023-01-18T02:31:48.562Z,9.10
2023-01-18T02:34:20.934Z,4.32
2023-01-18T02:36:47.593Z,7.20
2023-01-18T02:39:52.977Z,12.15
2023-01-18T02:42:41.307Z,6.77
2023-01-18T02:45:37.571Z,7.50
2023-01-18T02:48:05.422Z,7.18
2023-01-18T02:50:32.349Z,6.90
2023-01-18T02:52:59.346Z,8.35
2023-01-18T02:55:48.343Z,8.07
2023-01-18T02:58:33.171Z,7.40
2023-01-18T03:01:05.151Z,4.43
2023-01-18T03:03:32.096Z,10.70
2023-01-18T03:06:01.987Z,9.40
2023-01-18T03:08:38.755Z,7.25
2023-01-18T03:11:22.647Z,16.77
2023-01-18T03:14:13.954Z,7.88
2023-01-18T03:17:06.304Z,9.20
2023-01-18T03:20:19.304Z,8.27
2023-01-18T03:23:35.911Z,21.10
2023-01-18T03:28:59.190Z,7.15
2023-01-18T03:31:55.786Z,9.98
2023-01-18T03:34:24.797Z,15.05
2023-01-18T03:36:53.919Z,8.82
2023-01-18T03:39:36.829Z,8.68
2023-01-18T03:42:09.235Z,6.50
2023-01-18T03:44:53.058Z,6.93
2023-01-18T03:47:20.509Z,5.40
2023-01-18T03:49:47.789Z,10.82
2023-01-18T03:52:18.828Z,7.55
2023-01-18T03:55:10.119Z,9.55
2023-01-18T03:57:58.687Z,6.40
2023-01-18T04:00:25.815Z,4.78
2023-01-18T04:02:53.244Z,8.02
2023-01-18T04:05:20.153Z,8.30
2023-01-18T04:07:47.181Z,11.45
2023-01-18T04:10:14.033Z,7.43
2023-01-18T04:12:40.762Z,4.82
2023-01-18T04:15:07.901Z,4.70
2023-01-18T04:17:34.741Z,7.22
2023-01-18T04:20:01.394Z,8.18
2023-01-18T04:22:28.156Z,9.25
2023-01-18T04:24:54.926Z,9.25
2023-01-18T04:27:27.997Z,8.45
2023-01-18T04:29:55.010Z,6.18
2023-01-18T04:32:21.646Z,12.52
2023-01-18T04:34:48.276Z,6.13
2023-01-18T04:37:15.085Z,4.88
2023-01-18T04:39:41.701Z,8.63
2023-01-18T04:42:08.498Z,11.80
2023-01-18T04:44:35.215Z,9.25
2023-01-18T04:47:01.811Z,8.50
2023-01-18T04:49:28.533Z,7.97
2023-01-18T04:51:55.209Z,5.95
2023-01-18T04:54:22.310Z,13.88
2023-01-18T04:56:49.026Z,8.57
2023-01-18T04:59:16.904Z,6.38
2023-01-18T05:01:43.714Z,5.75
2023-01-18T05:04:10.818Z,12.70
2023-01-18T05:06:37.556Z,12.18
2023-01-18T05:09:04.327Z,13.25
2023-01-18T05:11:31.492Z,11.20
2023-01-18T05:13:58.194Z,8.95
2023-01-18T05:16:25.233Z,8.57
2023-01-18T05:18:52.093Z,10.40
2023-01-18T05:21:18.942Z,8.80
2023-01-18T05:23:46.150Z,6.65
2023-01-18T05:26:19.343Z,7.82
2023-01-18T05:28:46.957Z,6.20
2023-01-18T05:31:21.336Z,9.50
2023-01-18T05:33:48.599Z,7.78
2023-01-18T05:36:15.591Z,8.57
2023-01-18T05:38:42.419Z,11.05
2023-01-18T05:41:09.128Z,7.15
2023-01-18T05:43:35.927Z,7.32
2023-01-18T05:46:02.703Z,11.75
2023-01-18T05:48:30.170Z,7.35
2023-01-18T05:50:57.140Z,8.25
2023-01-18T05:53:24.051Z,11.80
2023-01-18T05:55:59.087Z,6.97
2023-01-18T06:00:53.528Z,7.78
2023-01-18T06:03:21.773Z,10.52
2023-01-18T06:05:49.447Z,10.93
2023-01-18T06:08:16.196Z,10.13
2023-01-18T06:10:43.829Z,9.70
2023-01-18T06:13:10.900Z,8.75
2023-01-18T06:15:37.665Z,10.15
2023-01-18T06:18:04.491Z,10.77
2023-01-18T06:20:31.827Z,7.68
2023-01-18T06:22:58.777Z,5.63
2023-01-18T06:25:26.269Z,6.97
2023-01-18T06:27:53.177Z,7.60
2023-01-18T06:30:20.711Z,6.18
2023-01-18T06:32:50.876Z,7.50
2023-01-18T06:35:17.814Z,15.23
2023-01-18T06:37:45.384Z,8.93
2023-01-18T06:40:12.797Z,10.45
2023-01-18T06:42:40.065Z,9.18
2023-01-18T06:45:07.199Z,8.30
2023-01-18T06:47:35.027Z,11.75
2023-01-18T06:50:01.913Z,8.00
2023-01-18T06:52:29.053Z,9.40
2023-01-18T06:54:55.856Z,10.40
2023-01-18T06:57:23.044Z,10.32
2023-01-18T06:59:49.733Z,8.40
2023-01-18T07:02:16.757Z,9.30
2023-01-18T07:04:45.376Z,10.70
2023-01-18T07:07:13.083Z,9.65
2023-01-18T07:09:39.796Z,17.00
2023-01-18T07:12:06.807Z,10.10
2023-01-18T07:14:37.403Z,10.38
2023-01-18T07:17:04.839Z,12.25
2023-01-18T07:19:33.074Z,14.85
2023-01-18T07:22:00.628Z,11.43
2023-01-18T07:24:28.876Z,9.70
2023-01-18T07:26:55.722Z,9.65
2023-01-18T07:29:22.776Z,10.52
2023-01-18T07:31:49.612Z,13.65
2023-01-18T07:34:16.304Z,12.52
2023-01-18T07:36:43.489Z,10.27
2023-01-18T07:39:10.768Z,8.93
2023-01-18T07:41:38.437Z,9.00
2023-01-18T07:44:05.999Z,5.45
2023-01-18T07:46:33.010Z,37.97
2023-01-18T07:49:02.393Z,11.55
2023-01-18T07:51:29.092Z,7.40
2023-01-18T07:53:56.224Z,8.90
2023-01-18T07:56:25.568Z,10.70
2023-01-18T07:58:52.622Z,8.07
2023-01-18T08:01:22.035Z,12.70
2023-01-18T08:03:50.178Z,12.90
2023-01-18T08:06:21.685Z,10.30
2023-01-18T08:08:48.363Z,9.18
2023-01-18T08:11:15.271Z,5.95
2023-01-18T08:13:42.021Z,10.82
2023-01-18T08:16:11.711Z,4.68
2023-01-18T08:18:39.391Z,10.43
2023-01-18T08:21:10.538Z,11.10
2023-01-18T08:23:39.223Z,8.90
2023-01-18T08:26:06.824Z,9.93
2023-01-18T08:28:34.599Z,16.23
2023-01-18T08:31:08.248Z,8.27
2023-01-18T08:33:39.921Z,5.00
2023-01-18T08:36:10.707Z,8.27
2023-01-18T08:38:37.374Z,11.20
2023-01-18T08:41:04.345Z,8.27
2023-01-18T08:43:32.049Z,7.90
2023-01-18T08:45:59.415Z,7.78
2023-01-18T08:48:26.253Z,5.75
2023-01-18T08:50:52.996Z,10.93
2023-01-18T08:53:19.759Z,10.68
2023-01-18T08:55:46.488Z,6.28
2023-01-18T08:58:13.892Z,10.23
2023-01-18T09:00:40.650Z,4.78
2023-01-18T09:03:07.479Z,7.97
2023-01-18T09:05:35.764Z,7.15
2023-01-18T09:08:02.836Z,11.98
2023-01-18T09:10:29.604Z,7.68
2023-01-18T09:12:56.593Z,8.50
2023-01-18T09:15:23.489Z,13.07
2023-01-18T09:17:50.181Z,10.93
2023-01-18T09:20:18.923Z,9.32
2023-01-18T09:22:48.083Z,12.10
2023-01-18T09:25:15.401Z,8.65
2023-01-18T09:27:42.825Z,13.38
2023-01-18T09:30:10.107Z,6.72
2023-01-18T09:32:37.059Z,8.23
2023-01-18T09:35:04.616Z,12.32
2023-01-18T09:37:32.670Z,8.00
2023-01-18T09:40:00.427Z,8.20
2023-01-18T09:42:37.972Z,8.52
2023-01-18T09:45:05.693Z,5.18
2023-01-18T09:47:43.245Z,7.05
2023-01-18T09:50:18.915Z,13.18
2023-01-18T09:53:11.257Z,8.93
2023-01-18T09:56:00.997Z,12.55
2023-01-18T09:58:38.228Z,8.95
2023-01-18T10:01:35.813Z,9.38
2023-01-18T10:04:14.130Z,13.57
2023-01-18T10:06:56.429Z,11.60
2023-01-18T10:09:29.972Z,12.52
2023-01-18T10:12:01.873Z,10.23
2023-01-18T10:14:28.494Z,15.98
2023-01-18T10:16:59.496Z,15.82
2023-01-18T10:19:29.595Z,15.02
2023-01-18T10:22:19.595Z,11.35
2023-01-18T10:24:49.161Z,8.63
2023-01-18T10:27:32.008Z,10.43
2023-01-18T10:30:20.527Z,12.32
2023-01-18T10:32:53.941Z,12.18
2023-01-18T10:35:33.777Z,10.98
2023-01-18T10:38:06.103Z,12.15
2023-01-18T10:40:34.664Z,7.35
2023-01-18T10:43:02.607Z,9.85
2023-01-18T10:45:32.517Z,7.75
2023-01-18T10:48:22.749Z,11.10
2023-01-18T10:50:53.539Z,12.65
2023-01-18T10:53:26.382Z,15.82
2023-01-18T10:56:02.163Z,12.98
2023-01-18T10:58:50.894Z,14.18
2023-01-18T11:01:22.591Z,15.30
2023-01-18T11:03:55.667Z,11.38
2023-01-18T11:06:24.466Z,9.52
2023-01-18T11:08:51.929Z,14.85
2023-01-18T11:11:46.156Z,14.23
2023-01-18T11:14:32.242Z,17.05
2023-01-18T11:17:11.095Z,12.32
2023-01-18T11:19:38.746Z,12.82
2023-01-18T11:22:13.294Z,15.52
2023-01-18T11:24:40.420Z,12.98
2023-01-18T11:27:20.347Z,12.45
2023-01-18T11:29:47.224Z,20.02
2023-01-18T11:32:24.330Z,13.15
2023-01-18T11:34:56.526Z,17.10
2023-01-18T11:37:36.195Z,18.40
2023-01-18T11:40:27.813Z,15.70
2023-01-18T11:43:22.874Z,25.55
2023-01-18T11:45:55.313Z,14.68
2023-01-18T11:48:53.163Z,17.20
2023-01-18T11:51:31.158Z,23.38
2023-01-18T11:54:22.732Z,14.77
2023-01-18T11:56:59.985Z,14.77
2023-01-18T11:59:32.116Z,13.60
2023-01-18T12:02:01.405Z,17.52
2023-01-18T12:05:05.294Z,11.85
2023-01-18T12:07:50.719Z,20.33
2023-01-18T12:10:25.945Z,21.25
2023-01-18T12:13:19.062Z,14.27
2023-01-18T12:16:03.778Z,15.90
2023-01-18T12:18:49.285Z,17.40
2023-01-18T12:21:42.012Z,11.85
2023-01-18T12:24:28.728Z,17.33
2023-01-18T12:26:59.534Z,12.45
2023-01-18T12:30:13.791Z,16.02
2023-01-18T12:33:04.783Z,18.20
2023-01-18T12:35:43.906Z,15.25
2023-01-18T12:38:26.107Z,17.25
2023-01-18T12:41:01.770Z,17.55
2023-01-18T12:43:38.451Z,12.25
2023-01-18T12:46:10.112Z,15.50
2023-01-18T12:48:42.805Z,17.40
2023-01-18T12:51:13.919Z,15.73
2023-01-18T12:53:46.133Z,19.27
2023-01-18T12:56:31.359Z,11.45
2023-01-18T12:59:02.278Z,19.42
2023-01-18T13:01:33.573Z,23.80
2023-01-18T13:04:11.072Z,14.40
2023-01-18T13:06:39.690Z,18.98
2023-01-18T13:09:12.736Z,19.63
2023-01-18T13:11:42.225Z,20.15
2023-01-18T13:14:24.277Z,31.70
2023-01-18T13:17:13.688Z,20.85
2023-01-18T13:19:54.827Z,29.92
2023-01-18T13:22:39.860Z,27.08
2023-01-18T13:25:44.053Z,23.70
2023-01-18T13:28:23.483Z,38.13
2023-01-18T13:30:53.445Z,26.08
2023-01-18T13:33:26.368Z,22.70
2023-01-18T13:35:56.352Z,23.73
2023-01-18T13:38:40.568Z,20.13
2023-01-18T13:41:13.282Z,22.23
2023-01-18T13:43:41.436Z,20.70
2023-01-18T13:46:08.240Z,20.23
2023-01-18T13:48:47.320Z,24.42
2023-01-18T13:51:47.130Z,26.35
2023-01-18T13:54:18.202Z,21.83
2023-01-18T13:57:05.964Z,24.52
2023-01-18T13:59:38.399Z,25.92
2023-01-18T14:02:27.060Z,20.98
2023-01-18T14:05:09.317Z,22.20
2023-01-18T14:07:44.387Z,29.50
2023-01-18T14:13:03.204Z,26.08
2023-01-18T14:15:30.310Z,20.85
2023-01-18T14:17:59.323Z,24.35
2023-01-18T14:20:49.723Z,25.05
2023-01-18T14:23:38.051Z,25.30
2023-01-18T14:26:07.954Z,61.20
2023-01-18T14:28:46.068Z,48.17
2023-01-18T14:31:20.082Z,50.67
2023-01-18T14:33:46.772Z,30.17
2023-01-18T14:36:26.065Z,34.72
2023-01-18T14:39:13.033Z,24.17
2023-01-18T14:41:50.006Z,36.95
2023-01-18T14:44:23.797Z,47.67
2023-01-18T14:46:52.814Z,29.30
2023-01-18T14:49:42.036Z,34.28
2023-01-18T14:52:13.833Z,31.17
2023-01-18T14:54:55.912Z,21.52
2023-01-18T14:57:24.053Z,27.95
2023-01-18T14:59:57.166Z,39.22
2023-01-18T15:02:29.426Z,32.17
2023-01-18T15:05:18.068Z,35.70
2023-01-18T15:07:55.288Z,30.85
2023-01-18T15:10:23.283Z,28.05
2023-01-18T15:12:54.760Z,24.95
2023-01-18T15:15:32.414Z,43.10
2023-01-18T15:18:10.555Z,30.13
2023-01-18T15:20:59.239Z,38.72
2023-01-18T15:23:28.341Z,40.55
2023-01-18T15:25:57.289Z,29.35
2023-01-18T15:28:31.474Z,31.92
2023-01-18T15:30:58.212Z,35.53
2023-01-18T15:33:27.332Z,49.90
2023-01-18T15:36:01.615Z,36.80
2023-01-18T15:38:28.599Z,64.57
2023-01-18T15:41:04.265Z,34.55
2023-01-18T15:43:35.513Z,57.05
2023-01-18T15:46:02.851Z,33.83
2023-01-18T15:48:37.327Z,28.80
2023-01-18T15:51:09.118Z,44.55
2023-01-18T15:53:52.396Z,32.90
2023-01-18T15:56:25.578Z,23.85
2023-01-18T15:58:58.044Z,36.25
2023-01-18T16:01:29.533Z,55.65
2023-01-18T16:03:59.794Z,31.45
2023-01-18T16:06:28.862Z,46.85
2023-01-18T16:09:12.830Z,33.42
2023-01-18T16:11:56.464Z,33.20
2023-01-18T16:14:29.006Z,30.25
2023-01-18T16:17:24.519Z,39.63
2023-01-18T16:19:57.043Z,42.08
2023-01-18T16:22:31.918Z,36.97
2023-01-18T16:25:33.141Z,32.30
2023-01-18T16:28:02.404Z,38.88
2023-01-18T16:30:34.850Z,42.85
2023-01-18T16:33:16.834Z,45.13
2023-01-18T16:35:44.607Z,37.88
2023-01-18T16:38:12.904Z,42.75
2023-01-18T16:40:42.370Z,29.38
2023-01-18T16:43:27.300Z,41.25
2023-01-18T16:45:56.110Z,33.17
2023-01-18T16:48:25.304Z,38.10
2023-01-18T16:50:52.654Z,37.15
2023-01-18T16:53:19.745Z,43.75
2023-01-18T16:55:48.351Z,30.25
2023-01-18T16:58:16.458Z,33.53
2023-01-18T17:01:11.803Z,26.75
2023-01-18T17:03:40.448Z,36.15
2023-01-18T17:06:07.528Z,28.63
2023-01-18T17:08:34.381Z,31.83
2023-01-18T17:11:01.070Z,33.75
2023-01-18T17:13:27.767Z,27.13
2023-01-18T17:15:54.503Z,40.22
2023-01-18T17:18:25.940Z,33.90
2023-01-18T17:20:53.819Z,26.48
2023-01-18T17:23:21.323Z,37.08
2023-01-18T17:25:48.791Z,35.22
2023-01-18T17:28:17.870Z,30.38
2023-01-18T17:30:47.396Z,25.52
2023-01-18T17:33:19.971Z,40.65
2023-01-18T17:35:48.235Z,31.25
2023-01-18T17:38:23.256Z,38.53
2023-01-18T17:40:51.247Z,29.33
2023-01-18T17:43:28.468Z,37.53
2023-01-18T17:46:01.855Z,31.05
2023-01-18T17:48:29.414Z,31.98
2023-01-18T17:50:56.209Z,40.47
2023-01-18T17:53:22.946Z,40.60
2023-01-18T17:55:52.075Z,30.10
2023-01-18T17:58:18.761Z,29.88
2023-01-18T18:00:45.415Z,31.42
2023-01-18T18:03:13.277Z,30.83
2023-01-18T18:05:40.271Z,32.15
2023-01-18T18:08:07.699Z,29.42
2023-01-18T18:10:34.381Z,30.90
2023-01-18T18:13:01.959Z,26.67
2023-01-18T18:15:28.853Z,30.33
2023-01-18T18:17:55.633Z,39.17
2023-01-18T18:20:23.008Z,29.13
2023-01-18T18:22:49.831Z,34.55
2023-01-18T18:25:16.615Z,27.63
2023-01-18T18:27:46.881Z,37.65
2023-01-18T18:30:15.000Z,28.23
2023-01-18T18:32:41.850Z,26.45
2023-01-18T18:35:23.713Z,56.00
2023-01-18T18:37:51.958Z,31.38
2023-01-18T18:40:19.078Z,28.67
2023-01-18T18:42:56.461Z,22.45
2023-01-18T18:45:28.480Z,33.38
2023-01-18T18:47:55.374Z,20.85
2023-01-18T18:50:22.127Z,33.45
2023-01-18T18:52:49.059Z,29.80
2023-01-18T18:55:15.932Z,24.80
2023-01-18T18:57:42.643Z,27.50
2023-01-18T19:00:10.133Z,31.83
2023-01-18T19:02:36.979Z,23.65
2023-01-18T19:05:06.327Z,28.42
2023-01-18T19:07:36.369Z,24.52
2023-01-18T19:10:04.780Z,28.23
2023-01-18T19:12:32.115Z,50.25
2023-01-18T19:14:59.042Z,21.05
2023-01-18T19:17:30.669Z,24.98
2023-01-18T19:19:58.382Z,27.80
2023-01-18T19:22:25.206Z,30.98
2023-01-18T19:24:51.937Z,28.98
2023-01-18T19:27:18.586Z,23.55
2023-01-18T19:29:45.246Z,31.98
2023-01-18T19:32:11.930Z,25.25
2023-01-18T19:34:38.774Z,23.95
2023-01-18T19:37:07.088Z,20.38
2023-01-18T19:39:34.977Z,49.88
2023-01-18T19:42:02.456Z,25.70
2023-01-18T19:44:29.912Z,29.95
2023-01-18T19:46:57.191Z,32.45
2023-01-18T19:49:26.562Z,23.95
2023-01-18T19:51:54.689Z,28.98
2023-01-18T19:54:22.133Z,36.35
2023-01-18T19:56:49.123Z,20.27
2023-01-18T19:59:16.151Z,26.75
2023-01-18T20:01:43.102Z,27.17
2023-01-18T20:04:10.321Z,24.98
2023-01-18T20:06:40.886Z,19.52
2023-01-18T20:09:18.361Z,23.55
2023-01-18T20:11:46.301Z,40.42
2023-01-18T20:14:13.191Z,21.00
2023-01-18T20:16:39.989Z,22.15
2023-01-18T20:19:06.919Z,27.70
2023-01-18T20:21:33.586Z,25.75
2023-01-18T20:24:01.130Z,31.40
2023-01-18T20:26:36.431Z,28.23
2023-01-18T20:29:07.387Z,18.98
2023-01-18T20:31:35.934Z,23.05
2023-01-18T20:34:03.098Z,23.80
2023-01-18T20:36:29.915Z,20.70
2023-01-18T20:38:56.624Z,27.83
2023-01-18T20:41:23.493Z,25.58
2023-01-18T20:43:50.168Z,30.45
2023-01-18T20:46:16.940Z,25.88
2023-01-18T20:48:44.083Z,22.17
2023-01-18T20:51:10.767Z,22.15
2023-01-18T20:53:40.170Z,26.75
2023-01-18T20:56:17.082Z,18.90
2023-01-18T20:58:54.746Z,13.65
2023-01-18T21:01:21.669Z,22.08
2023-01-18T21:03:57.514Z,22.23
2023-01-18T21:06:25.087Z,21.73
2023-01-18T21:08:52.921Z,26.83
2023-01-18T21:11:25.430Z,21.17
2023-01-18T21:13:56.562Z,16.63
2023-01-18T21:16:25.800Z,19.13
2023-01-18T21:18:53.964Z,21.00
2023-01-18T21:21:20.593Z,21.13
2023-01-18T21:23:49.056Z,18.23
2023-01-18T21:26:15.953Z,29.77
2023-01-18T21:28:43.244Z,23.15
2023-01-18T21:31:10.191Z,19.25
2023-01-18T21:33:37.694Z,29.08
2023-01-18T21:36:09.643Z,26.55
2023-01-18T21:38:36.507Z,18.73
2023-01-18T21:41:22.926Z,16.75
2023-01-18T21:44:11.353Z,15.77
2023-01-18T21:46:38.277Z,16.70
2023-01-18T21:49:06.772Z,23.33
2023-01-18T21:51:52.431Z,18.35
2023-01-18T21:54:19.786Z,18.10
2023-01-18T21:56:47.495Z,17.52
2023-01-18T21:59:14.681Z,14.85
2023-01-18T22:01:47.146Z,21.02
2023-01-18T22:04:34.600Z,22.15
2023-01-18T22:07:01.366Z,18.00
2023-01-18T22:09:30.158Z,17.52
2023-01-18T22:11:57.860Z,13.77
2023-01-18T22:14:25.760Z,18.38
2023-01-18T22:16:53.184Z,20.45
2023-01-18T22:19:19.969Z,13.55
2023-01-18T22:21:47.516Z,20.35
2023-01-18T22:24:14.944Z,27.05
2023-01-18T22:26:42.292Z,25.08
2023-01-18T22:29:09.675Z,20.98
2023-01-18T22:31:37.194Z,19.90
2023-01-18T22:34:05.596Z,15.30
2023-01-18T22:36:33.417Z,12.15
2023-01-18T22:39:00.277Z,18.38
2023-01-18T22:41:28.385Z,22.60
2023-01-18T22:43:56.539Z,20.63
2023-01-18T22:46:23.996Z,22.52
2023-01-18T22:48:51.186Z,20.35
2023-01-18T22:51:23.679Z,19.98
2023-01-18T22:53:51.011Z,20.05
2023-01-18T22:56:19.380Z,16.80
2023-01-18T22:58:47.517Z,44.65
2023-01-18T23:01:22.763Z,16.33
2023-01-18T23:03:53.075Z,16.13
2023-01-18T23:06:20.584Z,20.02
2023-01-18T23:08:48.536Z,19.08
2023-01-18T23:11:23.807Z,30.20
2023-01-18T23:14:13.152Z,16.98
2023-01-18T23:17:01.445Z,17.92
2023-01-18T23:19:30.474Z,23.55
2023-01-18T23:21:58.191Z,19.83
2023-01-18T23:24:25.224Z,25.05
2023-01-18T23:26:52.631Z,21.42
2023-01-18T23:29:20.477Z,21.95
2023-01-18T23:31:47.472Z,21.83
2023-01-18T23:34:14.432Z,20.27
2023-01-18T23:36:41.147Z,21.67
2023-01-18T23:39:26.454Z,19.58
2023-01-18T23:42:11.857Z,27.60
2023-01-18T23:47:42.340Z,16.48
2023-01-18T23:50:28.342Z,22.33
2023-01-18T23:53:13.521Z,23.25
2023-01-18T23:55:41.533Z,21.38
2023-01-18T23:58:08.211Z,21.10
